Time;durP1;ratioP1;P1;durP2;ratioP2;P2;SDS_P1;SDS_P2;PMS_P1;PMS_P2;Temp;Humidity;BMP_temperature;BMP_pressure;BME280_temperature;BME280_humidity;BME280_pressure;Samples;Min_cycle;Max_cycle;Signal;HPM_P1;HPM_P2
2021/07/22 00:02:13;;;;;;;;;;;26.20;51.30;;;;;;5113672;28;19923;-71
2021/07/22 00:04:39;;;;;;;;;;;26.10;51.30;;;;;;5112493;28;20306;-70
2021/07/22 00:07:05;;;;;;;;;;;26.10;51.20;;;;;;5112816;28;20024;-70
2021/07/22 00:09:31;;;;;;;;;;;26.10;51.10;;;;;;5113106;28;20424;-70
2021/07/22 00:11:57;;;;;;;;;;;26.10;51.10;;;;;;5113218;28;20052;-71
2021/07/22 00:14:28;;;;;;;;;;;26.00;51.10;;;;;;5112870;28;19927;-70
2021/07/22 00:16:54;;;;;;;;;;;26.00;51.00;;;;;;5113360;28;19924;-70
2021/07/22 00:19:20;;;;;;;;;;;26.00;50.80;;;;;;5112926;28;20414;-70
2021/07/22 00:21:46;;;;;;;;;;;25.90;50.70;;;;;;5112918;28;19974;-70
2021/07/22 00:24:12;;;;;;;;;;;25.90;50.70;;;;;;5113074;28;20390;-70
2021/07/22 00:26:38;;;;;;;;;;;25.90;50.80;;;;;;5113571;28;20014;-70
2021/07/22 00:29:05;;;;;;;;;;;25.90;51.10;;;;;;5112508;28;20418;-71
2021/07/22 00:31:31;;;;;;;;;;;25.90;50.90;;;;;;5113302;28;19924;-70
2021/07/22 00:33:57;;;;;;;;;;;25.90;51.00;;;;;;5113342;28;20010;-70
2021/07/22 00:36:23;;;;;;;;;;;25.90;50.80;;;;;;5112988;28;20008;-70
2021/07/22 00:38:49;;;;;;;;;;;25.90;50.70;;;;;;5113353;28;20024;-70
2021/07/22 00:41:15;;;;;;;;;;;25.90;50.70;;;;;;5112944;28;19969;-70
2021/07/22 00:43:41;;;;;;;;;;;25.90;50.80;;;;;;5113038;28;19931;-70
2021/07/22 00:46:08;;;;;;;;;;;25.80;51.10;;;;;;5112853;28;20057;-70
2021/07/22 00:48:34;;;;;;;;;;;25.80;51.00;;;;;;5111639;28;19924;-70
2021/07/22 00:51:00;;;;;;;;;;;25.80;51.10;;;;;;5112375;28;19969;-70
2021/07/22 00:53:26;;;;;;;;;;;25.70;50.90;;;;;;5113001;28;19924;-70
2021/07/22 00:55:52;;;;;;;;;;;25.80;51.10;;;;;;5113107;28;20375;-70
2021/07/22 00:58:18;;;;;;;;;;;25.80;51.30;;;;;;5112867;28;20027;-70
2021/07/22 01:00:45;;;;;;;;;;;25.70;51.00;;;;;;5113724;28;20012;-70
2021/07/22 01:03:11;;;;;;;;;;;25.70;51.00;;;;;;5117318;28;20014;-70
2021/07/22 01:05:39;;;;;;;;;;;25.70;51.20;;;;;;5116635;28;20014;-70
2021/07/22 01:08:07;;;;;;;;;;;25.70;51.20;;;;;;5117057;28;20359;-70
2021/07/22 01:10:33;;;;;;;;;;;25.70;51.20;;;;;;5116797;28;19924;-70
2021/07/22 01:13:00;;;;;;;;;;;25.70;51.40;;;;;;5116210;28;19931;-70
2021/07/22 01:15:26;;;;;;;;;;;25.70;51.30;;;;;;5116994;28;19931;-70
2021/07/22 01:17:53;;;;;;;;;;;25.60;51.40;;;;;;5116870;28;19980;-70
2021/07/22 01:20:26;;;;;;;;;;;25.60;51.60;;;;;;5116796;28;19931;-70
2021/07/22 01:22:53;;;;;;;;;;;25.60;51.70;;;;;;5116196;28;20309;-70
2021/07/22 01:25:20;;;;;;;;;;;25.60;51.60;;;;;;5116630;28;20355;-70
2021/07/22 01:27:46;;;;;;;;;;;25.50;51.60;;;;;;5116002;28;19924;-69
2021/07/22 01:30:16;;;;;;;;;;;25.50;51.80;;;;;;5116465;28;20386;-70
2021/07/22 01:32:42;;;;;;;;;;;25.50;52.00;;;;;;5116372;28;20405;-70
2021/07/22 01:35:09;;;;;;;;;;;25.50;52.10;;;;;;5116248;28;20317;-70
2021/07/22 01:37:37;;;;;;;;;;;25.50;52.10;;;;;;5115889;28;19923;-70
2021/07/22 01:40:04;;;;;;;;;;;25.40;52.10;;;;;;5116141;28;19928;-70
2021/07/22 01:42:30;;;;;;;;;;;25.40;52.40;;;;;;5116134;28;19932;-70
2021/07/22 01:44:57;;;;;;;;;;;25.40;52.50;;;;;;5116101;28;20024;-70
2021/07/22 01:47:23;;;;;;;;;;;25.40;52.40;;;;;;5116270;28;19928;-70
2021/07/22 01:49:49;;;;;;;;;;;25.40;52.70;;;;;;5106761;28;19997;-69
2021/07/22 01:52:15;;;;;;;;;;;25.30;52.50;;;;;;5115465;28;19924;-69
2021/07/22 01:54:41;;;;;;;;;;;25.30;52.80;;;;;;5116151;28;19956;-70
2021/07/22 01:57:07;;;;;;;;;;;25.30;52.90;;;;;;5112535;28;19938;-70
2021/07/22 01:59:36;;;;;;;;;;;25.30;53.10;;;;;;5104983;28;20003;-70
2021/07/22 02:02:03;;;;;;;;;;;25.30;53.10;;;;;;5115685;28;20063;-70
2021/07/22 02:04:30;;;;;;;;;;;25.30;53.50;;;;;;5116280;28;20371;-70
2021/07/22 02:06:56;;;;;;;;;;;25.20;53.50;;;;;;5115768;28;20014;-70
2021/07/22 02:09:22;;;;;;;;;;;25.20;53.40;;;;;;5115836;28;19924;-70
2021/07/22 02:11:49;;;;;;;;;;;25.20;53.50;;;;;;5115352;28;19924;-70
2021/07/22 02:14:15;;;;;;;;;;;25.20;53.80;;;;;;5115799;28;19976;-70
2021/07/22 02:16:41;;;;;;;;;;;25.20;53.90;;;;;;5115881;28;19939;-70
2021/07/22 02:19:07;;;;;;;;;;;25.10;54.00;;;;;;5115517;28;19928;-70
2021/07/22 02:21:36;;;;;;;;;;;25.10;54.10;;;;;;5114862;28;19935;-70
2021/07/22 02:24:03;;;;;;;;;;;25.10;54.10;;;;;;5115467;28;20084;-70
2021/07/22 02:26:29;;;;;;;;;;;25.00;54.20;;;;;;5115494;28;20011;-70
2021/07/22 02:28:56;;;;;;;;;;;25.00;54.20;;;;;;5115063;28;20007;-70
2021/07/22 02:31:22;;;;;;;;;;;25.00;54.20;;;;;;5115105;28;19976;-70
2021/07/22 02:33:48;;;;;;;;;;;25.00;54.40;;;;;;5115213;28;20414;-70
2021/07/22 02:36:14;;;;;;;;;;;24.90;55.40;;;;;;5114898;28;20394;-70
2021/07/22 02:38:40;;;;;;;;;;;24.90;54.60;;;;;;5114886;28;20022;-70
2021/07/22 02:41:06;;;;;;;;;;;24.90;54.60;;;;;;5114922;28;20014;-70
2021/07/22 02:43:33;;;;;;;;;;;24.90;54.90;;;;;;5115263;28;19924;-70
2021/07/22 02:46:06;;;;;;;;;;;24.80;55.00;;;;;;5115024;28;20006;-69
2021/07/22 02:48:32;;;;;;;;;;;24.80;55.00;;;;;;5115455;28;19931;-70
2021/07/22 02:51:02;;;;;;;;;;;24.80;55.10;;;;;;5114917;28;20006;-69
2021/07/22 02:53:28;;;;;;;;;;;24.80;55.10;;;;;;5114429;28;19985;-70
2021/07/22 02:55:55;;;;;;;;;;;24.80;55.30;;;;;;5114908;28;19939;-70
2021/07/22 02:58:21;;;;;;;;;;;24.80;55.40;;;;;;5115085;28;20014;-70
2021/07/22 03:00:47;;;;;;;;;;;24.80;55.60;;;;;;5114718;28;20058;-70
2021/07/22 03:03:13;;;;;;;;;;;24.70;55.60;;;;;;5114913;28;19946;-70
2021/07/22 03:05:39;;;;;;;;;;;24.70;55.60;;;;;;5114832;28;20060;-70
2021/07/22 03:08:05;;;;;;;;;;;24.70;55.80;;;;;;5114255;28;20006;-71
2021/07/22 03:10:32;;;;;;;;;;;24.70;55.70;;;;;;5114557;28;19924;-70
2021/07/22 03:12:58;;;;;;;;;;;24.70;56.00;;;;;;5114408;28;20010;-70
2021/07/22 03:15:24;;;;;;;;;;;24.70;56.00;;;;;;5114812;28;19923;-70
2021/07/22 03:17:50;;;;;;;;;;;24.60;56.10;;;;;;5114485;28;20400;-70
2021/07/22 03:20:16;;;;;;;;;;;24.60;56.20;;;;;;5114297;28;19931;-69
2021/07/22 03:22:42;;;;;;;;;;;24.60;56.30;;;;;;5113602;28;19924;-70
2021/07/22 03:25:09;;;;;;;;;;;24.60;56.30;;;;;;5113620;28;19967;-70
2021/07/22 03:27:35;;;;;;;;;;;24.50;56.50;;;;;;5113824;28;19976;-70
2021/07/22 03:30:01;;;;;;;;;;;24.50;56.70;;;;;;5113768;28;20392;-69
2021/07/22 03:32:27;;;;;;;;;;;24.40;56.70;;;;;;5114182;28;19924;-69
2021/07/22 03:34:53;;;;;;;;;;;24.40;57.10;;;;;;5114323;28;19988;-69
2021/07/22 03:37:20;;;;;;;;;;;24.40;57.10;;;;;;5113678;28;20420;-69
2021/07/22 03:39:46;;;;;;;;;;;24.40;57.10;;;;;;5113594;28;20003;-69
2021/07/22 03:42:12;;;;;;;;;;;24.40;56.90;;;;;;5113737;28;19923;-69
2021/07/22 03:44:38;;;;;;;;;;;24.40;57.10;;;;;;5114084;28;19971;-69
2021/07/22 03:47:05;;;;;;;;;;;24.40;57.10;;;;;;5113839;28;19987;-69
2021/07/22 03:49:31;;;;;;;;;;;24.40;57.00;;;;;;5113614;28;19924;-69
2021/07/22 03:51:57;;;;;;;;;;;24.30;57.20;;;;;;5113716;28;19924;-69
2021/07/22 03:54:24;;;;;;;;;;;24.30;57.30;;;;;;5095508;28;19924;-69
2021/07/22 03:56:50;;;;;;;;;;;24.30;57.50;;;;;;5113659;28;19973;-70
2021/07/22 03:59:16;;;;;;;;;;;24.20;57.50;;;;;;5113825;28;20401;-69
2021/07/22 04:01:43;;;;;;;;;;;24.20;57.70;;;;;;5113906;28;19928;-70
2021/07/22 04:04:09;;;;;;;;;;;24.20;57.80;;;;;;5113220;28;19984;-70
2021/07/22 04:06:36;;;;;;;;;;;24.10;57.80;;;;;;5113590;28;19924;-70
2021/07/22 04:09:02;;;;;;;;;;;24.20;58.00;;;;;;5113535;28;19931;-70
2021/07/22 04:11:28;;;;;;;;;;;24.10;58.00;;;;;;5112510;28;19931;-70
2021/07/22 04:13:54;;;;;;;;;;;24.10;58.10;;;;;;5113769;28;19927;-70
2021/07/22 04:16:20;;;;;;;;;;;24.10;58.20;;;;;;5113307;28;20023;-70
2021/07/22 04:18:46;;;;;;;;;;;24.00;58.30;;;;;;5113480;28;20014;-69
2021/07/22 04:21:13;;;;;;;;;;;24.10;58.50;;;;;;5113199;28;19924;-70
2021/07/22 04:23:39;;;;;;;;;;;24.00;58.40;;;;;;5113538;28;19923;-69
2021/07/22 04:26:05;;;;;;;;;;;24.00;58.30;;;;;;5113255;28;20336;-70
2021/07/22 04:28:31;;;;;;;;;;;24.00;58.30;;;;;;5113106;28;19927;-70
2021/07/22 04:30:57;;;;;;;;;;;24.00;58.40;;;;;;5113262;28;20016;-70
2021/07/22 04:33:23;;;;;;;;;;;24.00;58.40;;;;;;5112758;28;20314;-70
2021/07/22 04:35:56;;;;;;;;;;;24.00;58.50;;;;;;5117949;28;19927;-70
2021/07/22 04:38:22;;;;;;;;;;;23.90;58.60;;;;;;5120004;28;19924;-69
2021/07/22 04:40:48;;;;;;;;;;;23.90;58.90;;;;;;5119899;28;19924;-69
2021/07/22 04:43:14;;;;;;;;;;;23.80;59.00;;;;;;5118477;28;20064;-69
2021/07/22 04:45:40;;;;;;;;;;;23.80;59.20;;;;;;5120131;28;20408;-70
2021/07/22 04:48:06;;;;;;;;;;;23.70;59.40;;;;;;5119858;28;20008;-69
2021/07/22 04:50:32;;;;;;;;;;;23.70;60.50;;;;;;5119857;28;20007;-69
2021/07/22 04:52:59;;;;;;;;;;;23.60;59.60;;;;;;5119804;28;19943;-69
2021/07/22 04:55:26;;;;;;;;;;;23.60;59.90;;;;;;5119764;28;19924;-69
2021/07/22 04:58:01;;;;;;;;;;;23.70;60.10;;;;;;5119973;28;19934;-69
2021/07/22 05:00:27;;;;;;;;;;;23.70;60.00;;;;;;5119757;28;19931;-69
2021/07/22 05:02:57;;;;;;;;;;;23.70;59.90;;;;;;5119972;28;19924;-70
2021/07/22 05:05:24;;;;;;;;;;;23.70;59.90;;;;;;5119693;28;20010;-70
2021/07/22 05:07:50;;;;;;;;;;;23.80;59.80;;;;;;5120048;28;20003;-69
2021/07/22 05:10:16;;;;;;;;;;;23.80;59.80;;;;;;5119915;28;20370;-69
2021/07/22 05:12:42;;;;;;;;;;;23.70;59.80;;;;;;5119672;28;19935;-69
2021/07/22 05:15:09;;;;;;;;;;;23.70;60.10;;;;;;5119733;28;20295;-69
2021/07/22 05:17:38;;;;;;;;;;;23.70;60.20;;;;;;5119737;28;20405;-69
2021/07/22 05:20:05;;;;;;;;;;;23.70;60.20;;;;;;5119611;28;20458;-69
2021/07/22 05:22:31;;;;;;;;;;;23.70;60.40;;;;;;5119584;28;20003;-69
2021/07/22 05:24:57;;;;;;;;;;;23.70;60.20;;;;;;5119693;28;19991;-69
2021/07/22 05:27:24;;;;;;;;;;;23.70;61.20;;;;;;5137781;27;19971;-69
2021/07/22 05:29:50;;;;;;;;;;;23.80;60.20;;;;;;5136610;27;20286;-69
2021/07/22 05:32:16;;;;;;;;;;;23.80;60.10;;;;;;5127693;27;19923;-69
2021/07/22 05:34:42;;;;;;;;;;;23.80;60.10;;;;;;5119074;28;20298;-70
2021/07/22 05:37:10;;;;;;;;;;;23.80;60.20;;;;;;5130572;27;19923;-69
2021/07/22 05:39:36;;;;;;;;;;;23.80;60.10;;;;;;5122182;27;20429;-69
2021/07/22 05:42:03;;;;;;;;;;;23.90;60.00;;;;;;5119213;28;19931;-70
2021/07/22 05:44:29;;;;;;;;;;;23.90;60.10;;;;;;5133032;27;20400;-70
2021/07/22 05:46:55;;;;;;;;;;;23.90;60.00;;;;;;5131980;27;19931;-69
2021/07/22 05:49:22;;;;;;;;;;;23.90;60.10;;;;;;5130766;27;19924;-70
2021/07/22 05:51:48;;;;;;;;;;;23.90;60.00;;;;;;5117130;27;20012;-70
2021/07/22 05:54:14;;;;;;;;;;;24.00;59.90;;;;;;5116174;28;19931;-70
2021/07/22 05:56:40;;;;;;;;;;;24.00;59.90;;;;;;5115715;28;20393;-70
2021/07/22 05:59:06;;;;;;;;;;;24.00;60.00;;;;;;5115561;28;20014;-70
2021/07/22 06:01:32;;;;;;;;;;;24.00;59.90;;;;;;5116073;28;20378;-70
2021/07/22 06:03:58;;;;;;;;;;;24.00;59.90;;;;;;5122521;27;19924;-70
2021/07/22 06:06:24;;;;;;;;;;;24.10;60.10;;;;;;5133274;27;19943;-70
2021/07/22 06:08:50;;;;;;;;;;;24.10;60.00;;;;;;5132656;27;19963;-71
2021/07/22 06:11:16;;;;;;;;;;;24.20;59.50;;;;;;5133479;27;19931;-71
2021/07/22 06:13:43;;;;;;;;;;;24.10;59.50;;;;;;5131393;27;19927;-70
2021/07/22 06:16:10;;;;;;;;;;;24.10;59.40;;;;;;5133949;27;20014;-70
2021/07/22 06:18:37;;;;;;;;;;;24.20;59.70;;;;;;5130519;27;19932;-70
2021/07/22 06:21:03;;;;;;;;;;;24.20;59.60;;;;;;5131518;27;19980;-71
2021/07/22 06:23:29;;;;;;;;;;;24.30;59.60;;;;;;5124749;27;19976;-71
2021/07/22 06:25:56;;;;;;;;;;;24.30;58.90;;;;;;5131528;27;19923;-72
2021/07/22 06:28:23;;;;;;;;;;;24.30;58.90;;;;;;5122617;27;20089;-70
2021/07/22 06:30:49;;;;;;;;;;;24.30;59.00;;;;;;5130791;27;20023;-70
2021/07/22 06:33:15;;;;;;;;;;;24.40;59.00;;;;;;5129305;27;20010;-70
2021/07/22 06:35:42;;;;;;;;;;;24.40;58.50;;;;;;5120373;27;20031;-70
2021/07/22 06:38:08;;;;;;;;;;;24.50;57.70;;;;;;5118157;27;19977;-70
2021/07/22 06:40:35;;;;;;;;;;;24.50;56.80;;;;;;5111348;28;19928;-70
2021/07/22 06:43:01;;;;;;;;;;;24.50;57.00;;;;;;5111541;27;19928;-70
2021/07/22 06:45:28;;;;;;;;;;;24.50;56.90;;;;;;5111194;28;20014;-70
2021/07/22 06:47:54;;;;;;;;;;;24.60;57.00;;;;;;5110958;28;19928;-70
2021/07/22 06:50:20;;;;;;;;;;;24.70;56.20;;;;;;5113096;27;19927;-70
2021/07/22 06:52:46;;;;;;;;;;;24.60;56.40;;;;;;5119128;27;19995;-70
2021/07/22 06:55:12;;;;;;;;;;;24.60;56.50;;;;;;5110847;27;19943;-70
2021/07/22 06:57:38;;;;;;;;;;;24.70;56.50;;;;;;5127378;27;20334;-70
2021/07/22 07:00:05;;;;;;;;;;;24.70;56.00;;;;;;5125976;27;19932;-69
2021/07/22 07:02:31;;;;;;;;;;;24.80;54.80;;;;;;5121477;27;20580;-69
2021/07/22 07:04:57;;;;;;;;;;;24.90;54.80;;;;;;5122882;27;20441;-70
2021/07/22 07:07:23;;;;;;;;;;;24.90;54.60;;;;;;5126202;27;19928;-70
2021/07/22 07:09:50;;;;;;;;;;;25.00;53.40;;;;;;5111122;27;19927;-70
2021/07/22 07:12:16;;;;;;;;;;;25.00;53.90;;;;;;5124295;27;19932;-70
2021/07/22 07:14:42;;;;;;;;;;;25.10;53.30;;;;;;5127704;27;19927;-71
2021/07/22 07:17:08;;;;;;;;;;;25.20;53.00;;;;;;5122905;27;20022;-70
2021/07/22 07:19:34;;;;;;;;;;;25.30;53.00;;;;;;5122970;27;20303;-70
2021/07/22 07:22:00;;;;;;;;;;;25.30;52.30;;;;;;5112679;27;19928;-70
2021/07/22 07:24:26;;;;;;;;;;;25.50;52.40;;;;;;5122146;27;20007;-70
2021/07/22 07:26:52;;;;;;;;;;;25.50;51.10;;;;;;5110039;28;20669;-70
2021/07/22 07:29:19;;;;;;;;;;;25.50;50.80;;;;;;5094800;28;20062;-69
2021/07/22 07:31:45;;;;;;;;;;;25.50;50.70;;;;;;5107620;28;20319;-70
2021/07/22 07:34:11;;;;;;;;;;;25.50;51.20;;;;;;5109365;28;19928;-69
2021/07/22 07:36:41;;;;;;;;;;;25.50;51.20;;;;;;5101375;28;20011;-70
2021/07/22 07:39:07;;;;;;;;;;;25.60;51.30;;;;;;5107144;28;19967;-70
2021/07/22 07:41:33;;;;;;;;;;;25.70;50.10;;;;;;5104871;28;19927;-70
2021/07/22 07:43:59;;;;;;;;;;;25.80;49.70;;;;;;5107696;28;19939;-70
2021/07/22 07:46:25;;;;;;;;;;;25.70;50.70;;;;;;5108572;28;20080;-70
2021/07/22 07:48:51;;;;;;;;;;;25.80;51.20;;;;;;5106981;28;19969;-70
2021/07/22 07:51:17;;;;;;;;;;;25.90;50.80;;;;;;5109281;28;20006;-70
2021/07/22 07:53:44;;;;;;;;;;;26.10;50.30;;;;;;5107111;28;19939;-70
2021/07/22 07:56:10;;;;;;;;;;;26.40;49.90;;;;;;5106216;28;19924;-70
2021/07/22 07:58:36;;;;;;;;;;;26.60;49.90;;;;;;5111180;28;19987;-70
2021/07/22 08:01:02;;;;;;;;;;;26.80;48.60;;;;;;5092873;28;19959;-67
2021/07/22 08:03:28;;;;;;;;;;;27.00;47.90;;;;;;5096834;28;19924;-66
2021/07/22 08:05:54;;;;;;;;;;;27.10;47.10;;;;;;5092430;28;20421;-67
2021/07/22 08:08:22;;;;;;;;;;;27.00;47.20;;;;;;5093277;28;20014;-67
2021/07/22 08:10:48;;;;;;;;;;;27.00;47.60;;;;;;5092239;28;19924;-70
2021/07/22 08:13:14;;;;;;;;;;;27.20;47.30;;;;;;5103321;28;20432;-66
2021/07/22 08:15:40;;;;;;;;;;;27.20;47.30;;;;;;5092749;28;19928;-65
2021/07/22 08:18:07;;;;;;;;;;;27.40;47.30;;;;;;5093896;28;20017;-67
2021/07/22 08:20:33;;;;;;;;;;;27.60;47.00;;;;;;5093046;28;19975;-72
2021/07/22 08:22:59;;;;;;;;;;;27.60;46.30;;;;;;5095716;28;20303;-68
2021/07/22 08:25:25;;;;;;;;;;;27.60;46.80;;;;;;5092712;28;19928;-67
2021/07/22 08:27:51;;;;;;;;;;;27.70;46.70;;;;;;5095865;28;19932;-67
2021/07/22 08:30:18;;;;;;;;;;;28.00;45.40;;;;;;5092207;28;19924;-67
2021/07/22 08:32:44;;;;;;;;;;;28.20;44.20;;;;;;5093499;28;19928;-67
2021/07/22 08:35:10;;;;;;;;;;;28.20;44.80;;;;;;5091697;28;19928;-72
2021/07/22 08:37:37;;;;;;;;;;;28.30;45.60;;;;;;5096353;28;20394;-71
2021/07/22 08:40:04;;;;;;;;;;;28.40;45.00;;;;;;5069414;28;20441;-72
2021/07/22 08:42:35;;;;;;;;;;;28.70;43.60;;;;;;5090761;28;19935;-71
2021/07/22 08:45:02;;;;;;;;;;;28.80;43.20;;;;;;5093247;28;19924;-71
2021/07/22 08:47:28;;;;;;;;;;;28.90;42.80;;;;;;5097907;28;19927;-71
2021/07/22 08:49:54;;;;;;;;;;;29.10;42.80;;;;;;5106366;28;19924;-71
2021/07/22 08:52:21;;;;;;;;;;;29.30;41.80;;;;;;5095043;28;20031;-71
2021/07/22 08:54:47;;;;;;;;;;;29.50;41.80;;;;;;5100417;28;19963;-73
2021/07/22 08:57:14;;;;;;;;;;;29.80;41.70;;;;;;5102974;28;19924;-72
2021/07/22 08:59:41;;;;;;;;;;;30.00;39.20;;;;;;5110226;28;20299;-71
2021/07/22 09:02:11;;;;;;;;;;;30.00;39.70;;;;;;5106811;28;19931;-71
2021/07/22 09:05:07;;;;;;;;;;;29.90;39.70;;;;;;5111269;28;19974;-71
2021/07/22 09:07:33;;;;;;;;;;;29.70;39.30;;;;;;5088285;28;19981;-71
2021/07/22 09:10:06;;;;;;;;;;;29.40;40.80;;;;;;5095735;28;20010;-71
2021/07/22 09:12:41;;;;;;;;;;;29.50;40.90;;;;;;5092314;28;19928;-72
2021/07/22 09:15:14;;;;;;;;;;;29.70;41.00;;;;;;5096430;28;20020;-71
2021/07/22 09:17:46;;;;;;;;;;;30.00;41.20;;;;;;5093309;28;19970;-70
2021/07/22 09:20:24;;;;;;;;;;;30.40;40.60;;;;;;5091811;28;19931;-71
2021/07/22 09:22:50;;;;;;;;;;;30.80;38.40;;;;;;5099410;28;19932;-70
2021/07/22 09:25:18;;;;;;;;;;;31.00;36.50;;;;;;5106817;28;19923;-71
2021/07/22 09:27:45;;;;;;;;;;;30.90;37.00;;;;;;5100019;28;19932;-71
2021/07/22 09:30:12;;;;;;;;;;;30.60;36.00;;;;;;5108505;28;19927;-70
2021/07/22 09:32:39;;;;;;;;;;;30.30;37.20;;;;;;5102279;28;20447;-71
2021/07/22 09:35:09;;;;;;;;;;;30.20;36.70;;;;;;5100762;28;20053;-69
2021/07/22 09:37:38;;;;;;;;;;;30.00;38.30;;;;;;5102299;28;19969;-71
2021/07/22 09:40:05;;;;;;;;;;;30.10;37.90;;;;;;5098760;28;19931;-74
2021/07/22 09:42:49;;;;;;;;;;;30.20;37.40;;;;;;5108219;28;19935;-71
2021/07/22 09:45:19;;;;;;;;;;;30.40;38.30;;;;;;5071422;28;19959;-71
2021/07/22 09:47:46;;;;;;;;;;;30.50;37.70;;;;;;5105089;28;19924;-72
2021/07/22 09:50:14;;;;;;;;;;;30.70;38.70;;;;;;5095284;28;19924;-72
2021/07/22 09:52:41;;;;;;;;;;;31.20;38.70;;;;;;5100814;28;20014;-70
2021/07/22 09:55:28;;;;;;;;;;;31.80;38.30;;;;;;5101479;28;19928;-69
2021/07/22 09:57:58;;;;;;;;;;;32.50;36.00;;;;;;5101258;28;19924;-70
2021/07/22 10:00:25;;;;;;;;;;;32.70;34.20;;;;;;5112256;28;19931;-73
2021/07/22 10:02:52;;;;;;;;;;;32.80;34.20;;;;;;5100722;28;20002;-71
2021/07/22 10:05:19;;;;;;;;;;;32.50;33.20;;;;;;5096762;28;20013;-70
2021/07/22 10:07:45;;;;;;;;;;;32.00;35.20;;;;;;5087063;28;19924;-70
2021/07/22 10:10:12;;;;;;;;;;;32.00;36.10;;;;;;5102086;28;19971;-66
2021/07/22 10:12:42;;;;;;;;;;;32.30;33.90;;;;;;5097433;28;19959;-66
2021/07/22 10:15:08;;;;;;;;;;;32.40;34.00;;;;;;5082055;28;20547;-66
2021/07/22 10:17:35;;;;;;;;;;;32.40;34.20;;;;;;5092411;28;20018;-66
2021/07/22 10:20:03;;;;;;;;;;;32.30;35.20;;;;;;5094806;28;19924;-66
2021/07/22 10:22:29;;;;;;;;;;;32.70;33.50;;;;;;5095702;28;20014;-66
2021/07/22 10:24:56;;;;;;;;;;;33.00;33.90;;;;;;5093919;28;19985;-66
2021/07/22 10:27:22;;;;;;;;;;;33.30;33.40;;;;;;5095071;28;19924;-66
2021/07/22 10:29:48;;;;;;;;;;;33.30;32.80;;;;;;5114112;28;20011;-66
2021/07/22 10:32:26;;;;;;;;;;;33.30;32.80;;;;;;5113189;28;19928;-66
2021/07/22 10:34:53;;;;;;;;;;;32.90;33.60;;;;;;5110078;28;19923;-66
2021/07/22 10:37:20;;;;;;;;;;;32.00;34.20;;;;;;5111623;28;19988;-65
2021/07/22 10:40:08;;;;;;;;;;;31.50;36.20;;;;;;5100710;28;19944;-66
2021/07/22 10:42:40;;;;;;;;;;;30.90;36.40;;;;;;5104448;28;19928;-65
2021/07/22 10:45:22;;;;;;;;;;;30.30;38.10;;;;;;5114058;28;19939;-65
2021/07/22 10:48:02;;;;;;;;;;;30.10;39.20;;;;;;5108823;28;20010;-65
2021/07/22 10:50:37;;;;;;;;;;;30.10;39.00;;;;;;5114614;28;20402;-65
2021/07/22 10:53:04;;;;;;;;;;;29.90;40.20;;;;;;5107383;28;20287;-65
2021/07/22 10:55:42;;;;;;;;;;;29.90;40.00;;;;;;5114335;28;19970;-65
2021/07/22 10:58:21;;;;;;;;;;;29.80;40.20;;;;;;5106353;28;19973;-65
2021/07/22 11:00:47;;;;;;;;;;;29.80;40.00;;;;;;5112917;28;20047;-66
2021/07/22 11:03:36;;;;;;;;;;;29.90;39.70;;;;;;5109808;27;19980;-67
2021/07/22 11:06:03;;;;;;;;;;;30.10;40.60;;;;;;5130419;27;19931;-66
2021/07/22 11:08:31;;;;;;;;;;;30.30;39.70;;;;;;5129415;27;19966;-67
2021/07/22 11:11:04;;;;;;;;;;;30.30;40.00;;;;;;5131449;27;19963;-66
2021/07/22 11:13:37;;;;;;;;;;;30.40;38.80;;;;;;5130126;27;19930;-66
2021/07/22 11:16:03;;;;;;;;;;;30.50;39.70;;;;;;5122350;27;20392;-66
2021/07/22 11:18:49;;;;;;;;;;;30.50;37.60;;;;;;5113530;28;20050;-67
2021/07/22 11:21:29;;;;;;;;;;;30.50;38.60;;;;;;5123627;27;20378;-66
2021/07/22 11:24:06;;;;;;;;;;;30.50;39.20;;;;;;5130931;27;19935;-66
2021/07/22 11:26:32;;;;;;;;;;;30.70;36.80;;;;;;5103563;27;19954;-67
2021/07/22 11:29:00;;;;;;;;;;;30.50;37.60;;;;;;5112028;28;19931;-65
2021/07/22 11:31:30;;;;;;;;;;;30.40;38.30;;;;;;5113743;28;19935;-66
2021/07/22 11:34:00;;;;;;;;;;;30.30;38.00;;;;;;5112064;28;19923;-65
2021/07/22 11:36:26;;;;;;;;;;;30.20;39.30;;;;;;5113692;28;19927;-66
2021/07/22 11:38:53;;;;;;;;;;;30.10;38.60;;;;;;5111456;28;19928;-65
2021/07/22 11:41:20;;;;;;;;;;;30.10;37.70;;;;;;5113812;28;20386;-65
2021/07/22 11:43:56;;;;;;;;;;;30.00;38.30;;;;;;5110517;28;19976;-66
2021/07/22 11:46:39;;;;;;;;;;;30.10;37.80;;;;;;5113319;28;19924;-65
2021/07/22 11:49:06;;;;;;;;;;;30.10;37.50;;;;;;5108955;28;19985;-66
2021/07/22 11:51:33;;;;;;;;;;;30.00;38.60;;;;;;5113155;28;20673;-66
2021/07/22 11:53:59;;;;;;;;;;;30.10;39.00;;;;;;5109777;28;19930;-65
2021/07/22 11:56:29;;;;;;;;;;;30.20;38.40;;;;;;5113508;28;19928;-66
2021/07/22 11:58:55;;;;;;;;;;;30.20;38.10;;;;;;5113476;28;19959;-65
2021/07/22 12:01:21;;;;;;;;;;;30.10;39.60;;;;;;5120956;27;19975;-66
2021/07/22 12:03:47;;;;;;;;;;;30.10;39.10;;;;;;5117536;27;19953;-66
2021/07/22 12:06:14;;;;;;;;;;;30.20;40.00;;;;;;5113268;28;19972;-66
2021/07/22 12:08:40;;;;;;;;;;;30.20;37.80;;;;;;5101285;28;20147;-66
2021/07/22 12:11:06;;;;;;;;;;;30.20;37.90;;;;;;5113240;28;19969;-66
2021/07/22 12:13:48;;;;;;;;;;;30.20;36.10;;;;;;5094473;28;19967;-65
2021/07/22 12:16:14;;;;;;;;;;;30.10;37.90;;;;;;5111220;28;19930;-66
2021/07/22 12:18:40;;;;;;;;;;;30.10;38.40;;;;;;5116625;27;20022;-67
2021/07/22 12:21:19;;;;;;;;;;;29.90;38.20;;;;;;5126162;27;19977;-65
2021/07/22 12:23:45;;;;;;;;;;;29.80;38.90;;;;;;5105215;28;19931;-65
2021/07/22 12:26:11;;;;;;;;;;;29.80;38.00;;;;;;5112824;28;20460;-66
2021/07/22 12:28:37;;;;;;;;;;;29.80;38.90;;;;;;5110783;28;19963;-65
2021/07/22 12:31:13;;;;;;;;;;;29.90;39.20;;;;;;5124821;27;20004;-66
2021/07/22 12:33:39;;;;;;;;;;;30.10;37.30;;;;;;5118006;28;20037;-66
2021/07/22 12:36:21;;;;;;;;;;;30.30;37.50;;;;;;5112987;28;20017;-65
2021/07/22 12:39:05;;;;;;;;;;;30.20;37.40;;;;;;5110213;28;20355;-65
2021/07/22 12:41:31;;;;;;;;;;;30.10;37.90;;;;;;5112391;28;20010;-65
2021/07/22 12:43:58;;;;;;;;;;;29.90;38.60;;;;;;5108961;28;19935;-65
2021/07/22 12:46:28;;;;;;;;;;;29.80;39.20;;;;;;5110637;28;19947;-65
2021/07/22 12:48:55;;;;;;;;;;;29.70;39.90;;;;;;5105094;28;19970;-66
2021/07/22 12:51:22;;;;;;;;;;;29.80;40.00;;;;;;5112649;28;20378;-65
2021/07/22 12:53:48;;;;;;;;;;;29.90;40.40;;;;;;5081998;28;20346;-65
2021/07/22 12:56:15;;;;;;;;;;;30.10;39.60;;;;;;5107985;28;19973;-66
2021/07/22 12:58:46;;;;;;;;;;;30.20;39.80;;;;;;5106056;28;19928;-65
2021/07/22 13:01:15;;;;;;;;;;;30.20;38.70;;;;;;5116971;28;19930;-65
2021/07/22 13:03:42;;;;;;;;;;;30.20;39.10;;;;;;5112626;28;19931;-65
2021/07/22 13:06:10;;;;;;;;;;;30.20;38.70;;;;;;5123492;27;20062;-66
2021/07/22 13:08:36;;;;;;;;;;;30.20;37.50;;;;;;5111341;28;19996;-65
2021/07/22 13:11:04;;;;;;;;;;;30.20;37.90;;;;;;5117403;27;19977;-67
2021/07/22 13:13:30;;;;;;;;;;;30.10;37.20;;;;;;5117555;27;19931;-66
2021/07/22 13:15:57;;;;;;;;;;;30.00;39.70;;;;;;5120615;27;20059;-66
2021/07/22 13:18:23;;;;;;;;;;;30.00;38.20;;;;;;5107738;28;19934;-65
2021/07/22 13:20:50;;;;;;;;;;;30.00;37.80;;;;;;5113168;28;20379;-66
2021/07/22 13:23:16;;;;;;;;;;;30.00;38.20;;;;;;5116440;28;19983;-66
2021/07/22 13:25:42;;;;;;;;;;;30.00;37.80;;;;;;5116329;28;19930;-67
2021/07/22 13:28:08;;;;;;;;;;;30.00;40.20;;;;;;5110370;28;20010;-65
2021/07/22 13:30:34;;;;;;;;;;;30.10;40.10;;;;;;5109476;28;20018;-66
2021/07/22 13:33:01;;;;;;;;;;;30.30;38.70;;;;;;5115275;28;19924;-65
2021/07/22 13:35:36;;;;;;;;;;;30.40;38.00;;;;;;5116600;28;19924;-66
2021/07/22 13:38:03;;;;;;;;;;;30.40;37.50;;;;;;5114585;28;20343;-65
2021/07/22 13:40:30;;;;;;;;;;;30.50;36.60;;;;;;5115489;28;19967;-65
2021/07/22 13:43:00;;;;;;;;;;;30.40;37.70;;;;;;5097192;28;20510;-65
2021/07/22 13:45:28;;;;;;;;;;;30.40;38.00;;;;;;5116168;28;20338;-66
2021/07/22 13:47:54;;;;;;;;;;;30.30;39.30;;;;;;5122333;27;20375;-65
2021/07/22 13:50:20;;;;;;;;;;;30.40;36.70;;;;;;5094988;28;20391;-66
2021/07/22 13:52:46;;;;;;;;;;;30.40;38.30;;;;;;5114409;28;19931;-66
2021/07/22 13:55:12;;;;;;;;;;;30.40;38.90;;;;;;5115934;28;20370;-67
2021/07/22 13:57:38;;;;;;;;;;;30.50;38.70;;;;;;5113975;28;19928;-66
2021/07/22 14:00:05;;;;;;;;;;;30.60;38.30;;;;;;5108642;28;20374;-66
2021/07/22 14:02:31;;;;;;;;;;;30.60;39.30;;;;;;5115512;28;19934;-66
2021/07/22 14:04:57;;;;;;;;;;;30.80;38.30;;;;;;5115560;28;20008;-66
2021/07/22 14:07:24;;;;;;;;;;;30.70;36.60;;;;;;5114142;28;20286;-66
2021/07/22 14:09:50;;;;;;;;;;;30.60;38.60;;;;;;5104849;28;19936;-67
2021/07/22 14:12:16;;;;;;;;;;;30.60;37.60;;;;;;5121832;27;19923;-66
2021/07/22 14:14:42;;;;;;;;;;;30.70;38.70;;;;;;5105753;27;19930;-66
2021/07/22 14:17:08;;;;;;;;;;;30.70;38.40;;;;;;5122316;27;20015;-66
2021/07/22 14:19:34;;;;;;;;;;;30.70;37.80;;;;;;5104956;28;20371;-66